createdAt,value
2019-04-03T00:00:39.614Z,28.1
2019-04-03T00:01:49.012Z,28.2
2019-04-03T00:02:58.484Z,28.2
2019-04-03T00:04:07.782Z,28.2
2019-04-03T00:05:17.191Z,28.1
2019-04-03T00:06:26.619Z,28.3
2019-04-03T00:07:36.254Z,28.2
2019-04-03T00:08:45.417Z,28.3
2019-04-03T00:09:54.795Z,28.3
2019-04-03T00:11:04.177Z,28.5
2019-04-03T00:12:13.571Z,28.4
2019-04-03T00:13:22.994Z,28.5
2019-04-03T00:14:32.361Z,28.6
2019-04-03T00:15:44.596Z,28.7
2019-04-03T00:16:51.256Z,28.6
2019-04-03T00:18:01.673Z,28.6
2019-04-03T00:19:11.004Z,28.5
2019-04-03T00:20:20.606Z,28.6
2019-04-03T00:21:29.934Z,28.4
2019-04-03T00:22:39.228Z,28.4
2019-04-03T00:23:48.660Z,28.3
2019-04-03T00:24:57.992Z,28.2
2019-04-03T00:26:07.646Z,28.2
2019-04-03T00:27:16.940Z,28.4
2019-04-03T00:28:26.206Z,28.5
2019-04-03T00:29:35.595Z,28.3
2019-04-03T00:30:45.054Z,28.4
2019-04-03T00:31:54.846Z,28.6
2019-04-03T00:33:03.810Z,28.7
2019-04-03T00:34:13.187Z,28.7
2019-04-03T00:35:23.930Z,28.9
2019-04-03T00:36:32.156Z,28.9
2019-04-03T00:37:41.733Z,29.3
2019-04-03T00:38:50.932Z,29
2019-04-03T00:40:00.308Z,29.2
2019-04-03T00:41:09.592Z,29.2
2019-04-03T00:42:19.013Z,29.2
2019-04-03T00:43:28.381Z,29.1
2019-04-03T00:44:37.849Z,29.2
2019-04-03T00:45:47.207Z,29.2
2019-04-03T00:46:56.567Z,29.1
2019-04-03T00:48:05.972Z,29.2
2019-04-03T00:49:15.368Z,29.4
2019-04-03T00:50:27.064Z,29.5
2019-04-03T00:51:34.322Z,29.5
2019-04-03T00:52:43.638Z,29.8
2019-04-03T00:53:52.955Z,29.8
2019-04-03T00:55:02.372Z,29.8
2019-04-03T00:56:11.755Z,29.8
2019-04-03T00:57:21.179Z,30
2019-04-03T00:58:30.554Z,30.2
2019-04-03T00:59:40.049Z,30.3
2019-04-03T01:00:49.400Z,30.4
2019-04-03T01:01:58.807Z,30.4
2019-04-03T01:03:08.180Z,30.4
2019-04-03T01:04:17.790Z,30.4
2019-04-03T01:05:29.087Z,30.4
2019-04-03T01:06:36.535Z,30.5
2019-04-03T01:07:45.719Z,30.9
2019-04-03T01:08:55.227Z,30.8
2019-04-03T01:10:04.524Z,30.9
2019-04-03T01:11:13.951Z,31.2
2019-04-03T01:12:23.304Z,31.2
2019-04-03T01:13:32.709Z,31.3
2019-04-03T01:14:43.354Z,31
2019-04-03T01:15:52.618Z,30.9
2019-04-03T01:17:04.667Z,31
2019-04-03T01:18:11.405Z,31.2
2019-04-03T01:19:20.805Z,31
2019-04-03T01:20:30.200Z,31.3
2019-04-03T01:21:39.584Z,31.5
2019-04-03T01:22:49.008Z,31.5
2019-04-03T01:23:58.379Z,31.5
2019-04-03T01:25:09.540Z,31.5
2019-04-03T01:26:17.165Z,31.7
2019-04-03T01:27:26.578Z,31.9
2019-04-03T01:28:36.266Z,31.9
2019-04-03T01:29:45.353Z,32.2
2019-04-03T01:30:54.822Z,32.6
2019-04-03T01:32:04.117Z,32.5
2019-04-03T01:33:16.415Z,32.7
2019-04-03T01:34:22.874Z,33.6
2019-04-03T01:35:32.270Z,33.6
2019-04-03T01:36:42.192Z,33.7
2019-04-03T01:37:51.062Z,33.7
2019-04-03T01:39:00.512Z,33.6
2019-04-03T01:40:10.906Z,33.6
2019-04-03T01:41:21.639Z,33.6
2019-04-03T01:42:29.668Z,33.5
2019-04-03T01:43:39.066Z,33.6
2019-04-03T01:44:48.469Z,33.5
2019-04-03T01:45:57.822Z,33.6
2019-04-03T01:47:07.201Z,33.6
2019-04-03T01:48:16.643Z,33.6
2019-04-03T01:49:28.815Z,33.5
2019-04-03T01:50:35.446Z,33.5
2019-04-03T01:51:45.052Z,33.5
2019-04-03T01:52:54.405Z,33.5
2019-04-03T01:54:03.750Z,33.5
2019-04-03T01:55:12.898Z,33.5
2019-04-03T01:56:22.606Z,33.5
2019-04-03T01:57:31.673Z,33.5
2019-04-03T01:58:41.065Z,33.5
2019-04-03T01:59:50.565Z,33.5
2019-04-03T02:00:59.946Z,33.4
2019-04-03T02:02:09.404Z,33.9
2019-04-03T02:03:18.645Z,33.4
2019-04-03T02:04:28.006Z,34.4
2019-04-03T02:05:38.558Z,34.4
2019-04-03T02:06:48.086Z,34.9
2019-04-03T02:07:57.320Z,34.8
2019-04-03T02:09:06.880Z,34.1
2019-04-03T02:10:18.240Z,34.3
2019-04-03T02:11:25.467Z,34.7
2019-04-03T02:12:34.836Z,34.7
2019-04-03T02:13:44.394Z,35.1
2019-04-03T02:14:53.842Z,35.1
2019-04-03T02:16:03.038Z,34.9
2019-04-03T02:17:12.571Z,34.4
2019-04-03T02:18:21.949Z,35
2019-04-03T02:19:31.170Z,35.1
2019-04-03T02:20:41.207Z,35.1
2019-04-03T02:21:49.944Z,35.6
2019-04-03T02:23:00.616Z,34.9
2019-04-03T02:24:08.646Z,35.1
2019-04-03T02:25:18.065Z,34.9
2019-04-03T02:26:27.560Z,34.7
2019-04-03T02:27:36.856Z,34.8
2019-04-03T02:28:46.340Z,35.5
2019-04-03T02:29:55.529Z,35.4
2019-04-03T02:31:05.016Z,35.5
2019-04-03T02:32:14.304Z,35.6
2019-04-03T02:33:23.970Z,35.6
2019-04-03T02:34:36.022Z,35.3
2019-04-03T02:35:42.484Z,35.4
2019-04-03T02:36:51.868Z,35.4
2019-04-03T02:38:01.506Z,35.4
2019-04-03T02:39:10.728Z,35.6
2019-04-03T02:40:20.066Z,35.8
2019-04-03T02:41:29.359Z,35.9
2019-04-03T02:42:42.509Z,35.7
2019-04-03T02:43:48.455Z,35.7
2019-04-03T02:44:57.541Z,35.5
2019-04-03T02:46:06.802Z,35.8
2019-04-03T02:47:16.255Z,35.8
2019-04-03T02:48:25.581Z,35.9
2019-04-03T02:49:35.171Z,36
2019-04-03T02:50:48.024Z,36.1
2019-04-03T02:51:53.964Z,36.2
2019-04-03T02:53:03.156Z,36.7
2019-04-03T02:54:12.494Z,36.2
2019-04-03T02:55:21.867Z,36.6
2019-04-03T02:56:31.306Z,36.6
2019-04-03T02:57:40.942Z,36.8
2019-04-03T02:58:54.944Z,37.1
2019-04-03T03:00:00.947Z,37.1
2019-04-03T03:01:08.694Z,37.3
2019-04-03T03:02:18.125Z,37.3
2019-04-03T03:03:27.425Z,37.4
2019-04-03T03:04:37.022Z,37.8
2019-04-03T03:05:46.225Z,37.5
2019-04-03T03:06:55.553Z,37.8
2019-04-03T03:08:09.467Z,37.8
2019-04-03T03:09:14.638Z,37.9
2019-04-03T03:10:23.694Z,37.7
2019-04-03T03:11:33.136Z,37.9
2019-04-03T03:12:42.397Z,38.1
2019-04-03T03:13:51.767Z,39.1
2019-04-03T03:15:01.441Z,39.2
2019-04-03T03:16:10.573Z,39.5
2019-04-03T03:17:23.555Z,39.4
2019-04-03T03:18:29.243Z,39.7
2019-04-03T03:19:38.685Z,39.5
2019-04-03T03:20:48.012Z,39.6
2019-04-03T03:21:57.352Z,39.7
2019-04-03T03:23:06.791Z,39.9
2019-04-03T03:24:16.541Z,39.8
2019-04-03T03:25:25.458Z,40.1
2019-04-03T03:26:37.844Z,40.2
2019-04-03T03:27:44.239Z,40.2
2019-04-03T03:28:53.612Z,40.4
2019-04-03T03:30:38.240Z,40.3
2019-04-03T03:31:12.838Z,40.8
2019-04-03T03:32:34.010Z,40.7
2019-04-03T03:33:39.149Z,41.2
2019-04-03T03:35:05.977Z,41
2019-04-03T03:35:51.862Z,41.1
2019-04-03T03:37:03.282Z,41.6
2019-04-03T03:38:08.558Z,41.7
2019-04-03T03:39:18.342Z,41.1
2019-04-03T03:40:27.228Z,41.6
2019-04-03T03:41:36.715Z,41.7
2019-04-03T03:42:46.259Z,42
2019-04-03T03:45:04.677Z,42.2
2019-04-03T03:46:14.285Z,42.2
2019-04-03T03:47:23.729Z,42.1
2019-04-03T03:48:32.985Z,42.6
2019-04-03T03:49:42.108Z,42.7
2019-04-03T03:50:57.612Z,42.6
2019-04-03T03:52:05.452Z,42.5
2019-04-03T03:53:12.806Z,43.2
2019-04-03T03:54:19.659Z,43
2019-04-03T03:55:28.948Z,43.3
2019-04-03T03:56:38.294Z,43.3
2019-04-03T03:57:47.624Z,43.5
2019-04-03T03:58:56.994Z,43.6
2019-04-03T04:00:06.425Z,43.6
2019-04-03T04:01:15.720Z,43.3
2019-04-03T04:02:25.115Z,43.7
2019-04-03T04:03:34.627Z,44.1
2019-04-03T04:04:48.676Z,43.9
2019-04-03T04:05:56.710Z,43.8
2019-04-03T04:07:04.745Z,43.7
2019-04-03T04:08:12.706Z,43.7
2019-04-03T04:09:21.456Z,44.2
2019-04-03T04:10:36.592Z,44.4
2019-04-03T04:11:39.985Z,44.7
2019-04-03T04:12:49.311Z,44.5
2019-04-03T04:13:58.659Z,44.4
2019-04-03T04:15:08.054Z,44.2
2019-04-03T04:16:17.589Z,44.3
2019-04-03T04:17:26.831Z,44.7
2019-04-03T04:18:36.180Z,44.6
2019-04-03T04:19:45.435Z,44.6
2019-04-03T04:20:54.935Z,44.4
2019-04-03T04:22:04.195Z,44.5
2019-04-03T04:23:13.964Z,44.8
2019-04-03T04:24:22.850Z,44.8
2019-04-03T04:25:32.198Z,44.9
2019-04-03T04:26:41.876Z,44.8
2019-04-03T04:27:51.017Z,45.1
2019-04-03T04:29:00.275Z,45.2
2019-04-03T04:30:12.858Z,44.8
2019-04-03T04:31:18.980Z,44.7
2019-04-03T04:32:28.329Z,45
2019-04-03T04:33:37.700Z,46.7
2019-04-03T04:34:50.487Z,45.1
2019-04-03T04:35:56.474Z,45.4
2019-04-03T04:37:07.455Z,45.1
2019-04-03T04:38:15.211Z,45.3
2019-04-03T04:39:28.948Z,45.5
2019-04-03T04:40:35.082Z,45.6
2019-04-03T04:41:44.422Z,45.5
2019-04-03T04:42:53.781Z,45.6
2019-04-03T04:44:03.123Z,45.6
2019-04-03T04:46:21.775Z,45.5
2019-04-03T04:47:31.338Z,45.5
2019-04-03T04:48:40.479Z,45.6
2019-04-03T04:49:50.045Z,45.4
2019-04-03T04:50:59.347Z,45.5
2019-04-03T04:52:08.593Z,45.6
2019-04-03T04:53:17.915Z,45.6
2019-04-03T04:54:27.275Z,46.2
2019-04-03T04:55:36.654Z,46.3
2019-04-03T04:56:45.983Z,46.5
2019-04-03T04:57:55.438Z,46.4
2019-04-03T04:59:04.854Z,46.4
2019-04-03T05:00:16.294Z,46.7
2019-04-03T05:01:23.446Z,46
2019-04-03T05:02:32.746Z,45.9
2019-04-03T05:03:42.161Z,45.6
2019-04-03T05:04:51.527Z,45.8
2019-04-03T05:06:00.999Z,46
2019-04-03T05:07:10.350Z,45.8
2019-04-03T05:08:19.543Z,45.9
2019-04-03T05:09:28.871Z,45.9
2019-04-03T05:10:38.478Z,45.7
2019-04-03T05:11:47.596Z,45.5
2019-04-03T05:12:57.151Z,45.3
2019-04-03T05:14:06.355Z,45.3
2019-04-03T05:15:15.718Z,45.4
2019-04-03T05:16:25.729Z,45.5
2019-04-03T05:17:34.425Z,45.8
2019-04-03T05:18:43.789Z,45.5
2019-04-03T05:19:53.110Z,45.7
2019-04-03T05:21:02.450Z,46
2019-04-03T05:22:11.810Z,46
2019-04-03T05:23:21.147Z,45.6
2019-04-03T05:24:30.506Z,45.9
2019-04-03T05:25:40.025Z,45.3
2019-04-03T05:26:49.485Z,45.6
2019-04-03T05:27:58.625Z,45.5
2019-04-03T05:29:07.958Z,45.1
2019-04-03T05:30:19.048Z,45.3
2019-04-03T05:31:26.662Z,45.5
2019-04-03T05:32:36.008Z,45.6
2019-04-03T05:33:45.388Z,46
2019-04-03T05:34:54.756Z,45.3
2019-04-03T05:36:04.159Z,45.2
2019-04-03T05:37:13.469Z,44.8
2019-04-03T05:38:22.818Z,44.9
2019-04-03T05:39:32.467Z,45.1
2019-04-03T05:40:41.540Z,45.1
2019-04-03T05:41:51.301Z,46.4
2019-04-03T05:43:00.661Z,44.8
2019-04-03T05:44:09.635Z,45.2
2019-04-03T05:45:19.104Z,44.7
2019-04-03T05:46:28.385Z,45.1
2019-04-03T05:47:39.907Z,45.1
2019-04-03T05:48:48.611Z,44.8
2019-04-03T05:49:56.590Z,44.9
2019-04-03T05:51:05.784Z,44.7
2019-04-03T05:52:15.258Z,44.1
2019-04-03T05:53:24.627Z,44.5
2019-04-03T05:54:33.881Z,44.4
2019-04-03T05:55:43.303Z,43.3
2019-04-03T05:56:52.616Z,43.3
2019-04-03T05:58:01.994Z,43.3
2019-04-03T05:59:12.715Z,43.6
2019-04-03T06:00:21.943Z,42.8
2019-04-03T06:01:31.404Z,43.3
2019-04-03T06:02:40.636Z,42.4
2019-04-03T06:03:49.956Z,42.4
2019-04-03T06:04:59.335Z,42.3
2019-04-03T06:06:08.679Z,42.5
2019-04-03T06:07:19.008Z,42.3
2019-04-03T06:08:27.451Z,42
2019-04-03T06:09:36.803Z,41.8
2019-04-03T06:10:46.205Z,42.1
2019-04-03T06:11:55.561Z,42.5
2019-04-03T06:13:06.345Z,42
2019-04-03T06:14:14.314Z,41.9
2019-04-03T06:15:23.912Z,41.3
2019-04-03T06:16:33.273Z,41.1
2019-04-03T06:17:42.462Z,41
2019-04-03T06:18:52.135Z,39.9
2019-04-03T06:20:02.278Z,40.4
2019-04-03T06:21:10.774Z,39.7
2019-04-03T06:22:22.141Z,39
2019-04-03T06:23:29.770Z,37.3
2019-04-03T06:24:39.066Z,36.7
2019-04-03T06:25:48.196Z,36.5
2019-04-03T06:26:57.623Z,37
2019-04-03T06:28:07.046Z,36.3
2019-04-03T06:29:19.305Z,36.5
2019-04-03T06:30:26.389Z,36.1
2019-04-03T06:31:35.438Z,34.9
2019-04-03T06:32:44.689Z,34.1
2019-04-03T06:33:54.322Z,34.1
2019-04-03T06:35:03.816Z,33.8
2019-04-03T06:36:12.975Z,33.8
2019-04-03T06:37:22.812Z,33.1
2019-04-03T06:38:31.752Z,33
2019-04-03T06:39:41.177Z,33.8
2019-04-03T06:40:50.763Z,33.9
2019-04-03T06:42:00.116Z,33.6
2019-04-03T06:43:09.829Z,34.2
2019-04-03T06:44:22.959Z,33.6
2019-04-03T06:45:28.788Z,33.5
2019-04-03T06:46:37.933Z,33.5
2019-04-03T06:47:47.190Z,33.7
2019-04-03T06:48:56.630Z,33.7
2019-04-03T06:50:06.096Z,33.8
2019-04-03T06:51:16.846Z,34
2019-04-03T06:52:25.534Z,33.4
2019-04-03T06:53:34.850Z,33.7
2019-04-03T06:54:45.194Z,33.9
2019-04-03T06:55:53.299Z,32.8
2019-04-03T06:57:02.746Z,32.2
2019-04-03T06:58:12.820Z,33.5
2019-04-03T06:59:21.721Z,33.6
2019-04-03T07:00:31.092Z,32.4
2019-04-03T07:01:40.736Z,30.4
2019-04-03T07:02:49.980Z,31.2
2019-04-03T07:03:59.590Z,31.3
2019-04-03T07:05:11.050Z,31.9
2019-04-03T07:06:18.590Z,33.1
2019-04-03T07:07:35.489Z,32.3
2019-04-03T07:08:40.974Z,30.9
2019-04-03T07:09:46.722Z,30
2019-04-03T07:12:05.928Z,28.4
2019-04-03T07:13:15.531Z,29.3
2019-04-03T07:14:27.197Z,29.7
2019-04-03T07:15:34.226Z,29.2
2019-04-03T07:16:43.560Z,28.2
2019-04-03T07:19:02.567Z,29
2019-04-03T07:20:16.351Z,29.3
2019-04-03T07:21:23.986Z,29.2
2019-04-03T07:22:31.253Z,29.3
2019-04-03T07:23:40.483Z,28.8
2019-04-03T07:24:49.978Z,27.6
2019-04-03T07:25:59.399Z,28.5
2019-04-03T07:27:09.253Z,29
2019-04-03T07:28:18.380Z,29.6
2019-04-03T07:29:27.867Z,29.3
2019-04-03T07:30:37.352Z,28.9
2019-04-03T07:31:47.104Z,28.1
2019-04-03T07:32:58.498Z,27.6
2019-04-03T07:34:06.027Z,27
2019-04-03T07:35:15.280Z,27.4
2019-04-03T07:36:24.854Z,27.7
2019-04-03T07:37:34.327Z,28
2019-04-03T07:38:43.784Z,28.1
2019-04-03T07:39:53.308Z,27.3
2019-04-03T07:41:03.002Z,27.2
2019-04-03T07:42:12.351Z,27.1
2019-04-03T07:43:21.755Z,27.5
2019-04-03T07:44:31.681Z,26.4
2019-04-03T07:45:41.554Z,25.8
2019-04-03T07:46:50.323Z,25
2019-04-03T07:48:00.079Z,26.3
2019-04-03T07:49:10.520Z,26.8
2019-04-03T07:50:18.942Z,26.2
2019-04-03T07:51:28.623Z,25.3
2019-04-03T07:52:38.212Z,25.6
2019-04-03T07:53:51.253Z,24.9
2019-04-03T07:54:57.575Z,25.5
2019-04-03T07:56:06.715Z,24.3
2019-04-03T07:57:16.888Z,24.4
2019-04-03T07:58:25.883Z,24.8
2019-04-03T07:59:35.176Z,24.8
2019-04-03T08:00:44.709Z,24.7
2019-04-03T08:01:54.359Z,24.6
2019-04-03T08:03:03.804Z,24.3
2019-04-03T08:04:16.790Z,23.7
2019-04-03T08:05:22.778Z,23.2
2019-04-03T08:06:35.903Z,24.8
2019-04-03T08:07:41.816Z,23.9
2019-04-03T08:09:08.896Z,24.6
2019-04-03T08:10:00.956Z,23.3
2019-04-03T08:11:10.450Z,23.2
2019-04-03T08:12:20.011Z,23.3
2019-04-03T08:13:29.664Z,24.3
2019-04-03T08:14:42.034Z,23.9
2019-04-03T08:15:48.889Z,23.4
2019-04-03T08:16:58.592Z,23.3
2019-04-03T08:18:07.798Z,22.5
2019-04-03T08:19:18.024Z,22
2019-04-03T08:20:27.138Z,22.2
2019-04-03T08:21:36.671Z,21.2
2019-04-03T08:22:46.180Z,20.2
2019-04-03T08:23:56.102Z,20.1
2019-04-03T08:25:05.608Z,20.1
2019-04-03T08:26:19.778Z,20.1
2019-04-03T08:27:24.905Z,19.7
2019-04-03T08:28:34.435Z,21.5
2019-04-03T08:29:43.868Z,20.6
2019-04-03T08:30:53.879Z,21.1
2019-04-03T08:32:03.134Z,20.8
2019-04-03T08:33:19.119Z,20.8
2019-04-03T08:34:22.471Z,21.1
2019-04-03T08:35:35.818Z,18.8
2019-04-03T08:36:41.744Z,18.6
2019-04-03T08:37:51.475Z,18.7
2019-04-03T08:39:01.508Z,18.1
2019-04-03T08:40:10.778Z,17
2019-04-03T08:41:24.123Z,19.9
2019-04-03T08:42:33.013Z,19.6
2019-04-03T08:43:40.177Z,19
2019-04-03T08:44:49.504Z,18.3
2019-04-03T08:45:59.093Z,18.8
2019-04-03T08:47:08.774Z,18.5
2019-04-03T08:48:18.865Z,18.9
2019-04-03T08:49:28.541Z,18.7
2019-04-03T08:51:47.747Z,17.8
2019-04-03T08:52:57.222Z,18
2019-04-03T08:54:11.053Z,16
2019-04-03T08:55:17.056Z,16.8
2019-04-03T08:56:26.441Z,18.3
2019-04-03T08:57:36.074Z,18.1
2019-04-03T08:58:46.093Z,18.1
2019-04-03T08:59:55.565Z,18.3
2019-04-03T09:01:05.606Z,18.4
2019-04-03T09:02:15.009Z,17.9
2019-04-03T09:03:24.506Z,17.2
2019-04-03T09:04:34.157Z,18.2
2019-04-03T09:05:43.860Z,17.4
2019-04-03T09:06:54.750Z,16.9
2019-04-03T09:08:03.323Z,17
2019-04-03T09:09:13.083Z,16.9
2019-04-03T09:10:22.599Z,17.1
2019-04-03T09:11:32.343Z,15.3
2019-04-03T09:12:43.236Z,16.5
2019-04-03T09:13:55.913Z,15.7
2019-04-03T09:15:02.656Z,17.1
2019-04-03T09:16:12.238Z,15.6
2019-04-03T09:17:22.197Z,14.1
2019-04-03T09:18:31.962Z,13.3
2019-04-03T09:19:42.511Z,14.1
2019-04-03T09:20:51.959Z,15.2
2019-04-03T09:22:01.294Z,14.4
2019-04-03T09:23:10.444Z,13.5
2019-04-03T09:24:20.518Z,14.6
2019-04-03T09:25:32.449Z,14.7
2019-04-03T09:26:40.019Z,14.8
2019-04-03T09:28:59.400Z,14.7
2019-04-03T09:30:08.708Z,13.7
2019-04-03T09:31:20.663Z,13.5
2019-04-03T09:32:28.154Z,13.5
2019-04-03T09:33:37.888Z,13
2019-04-03T09:34:47.586Z,13.5
2019-04-03T09:35:59.906Z,13.4
2019-04-03T09:37:07.845Z,13.8
2019-04-03T09:38:16.746Z,13.1
2019-04-03T09:39:26.649Z,13.5
2019-04-03T09:40:36.518Z,13.3
2019-04-03T09:41:45.976Z,12.1
2019-04-03T09:42:55.828Z,11.2
2019-04-03T09:44:05.692Z,11.8
2019-04-03T09:45:15.170Z,13.2
2019-04-03T09:46:24.871Z,13.5
2019-04-03T09:47:35.677Z,13.7
2019-04-03T09:48:44.640Z,11.8
2019-04-03T09:49:54.384Z,12.8
2019-04-03T09:51:03.766Z,13.5
2019-04-03T09:52:13.487Z,13.6
2019-04-03T09:53:26.629Z,13.8
2019-04-03T09:54:32.949Z,13.9
2019-04-03T09:55:42.758Z,13.5
2019-04-03T09:57:03.176Z,13.9
2019-04-03T09:58:04.227Z,13.5
2019-04-03T09:59:15.297Z,13.9
2019-04-03T10:00:21.698Z,12.2
2019-04-03T10:01:31.298Z,13.4
2019-04-03T10:02:41.264Z,12.4
2019-04-03T10:03:55.375Z,11.6
2019-04-03T10:06:10.217Z,13.3
2019-04-03T10:07:19.972Z,13.5
2019-04-03T10:08:29.642Z,13.2
2019-04-03T10:09:43.406Z,13.1
2019-04-03T10:10:49.143Z,12.6
2019-04-03T10:11:58.883Z,11.9
2019-04-03T10:14:18.541Z,11.8
2019-04-03T10:15:31.157Z,10.5
2019-04-03T10:16:37.584Z,11.2
2019-04-03T10:17:47.610Z,11.8
2019-04-03T10:18:57.061Z,12.4
2019-04-03T10:20:06.942Z,11.7
2019-04-03T10:21:19.861Z,11.4
2019-04-03T10:22:26.422Z,12
2019-04-03T10:23:36.581Z,11.8
2019-04-03T10:24:45.526Z,11.4
2019-04-03T10:25:55.257Z,10.5
2019-04-03T10:27:05.145Z,9.9
2019-04-03T10:28:15.677Z,8.2
2019-04-03T10:29:24.337Z,9.4
2019-04-03T10:30:34.061Z,9.4
2019-04-03T10:31:43.779Z,10.1
2019-04-03T10:32:53.656Z,10.2
2019-04-03T10:34:04.711Z,11.7
2019-04-03T10:35:13.086Z,10.2
2019-04-03T10:36:22.593Z,9.9
2019-04-03T10:37:32.333Z,11.4
2019-04-03T10:38:42.929Z,12.8
2019-04-03T10:39:53.649Z,12.5
2019-04-03T10:41:01.467Z,11.3
2019-04-03T10:42:11.372Z,10.9
2019-04-03T10:43:21.071Z,11.1
2019-04-03T10:44:30.916Z,11.2
2019-04-03T10:45:40.313Z,11.4
2019-04-03T10:46:50.766Z,10.3
2019-04-03T10:47:59.593Z,10.3
2019-04-03T10:49:09.526Z,9.6
2019-04-03T10:51:31.841Z,10.1
2019-04-03T10:52:38.483Z,10.7
2019-04-03T10:53:51.972Z,10.6
2019-04-03T10:54:57.914Z,9.7
2019-04-03T10:56:08.044Z,7.8
2019-04-03T10:57:17.515Z,7.5
2019-04-03T10:58:27.000Z,7.8
2019-04-03T10:59:36.989Z,9.5
2019-04-03T11:00:46.360Z,9.2
2019-04-03T11:01:56.459Z,8.9
2019-04-03T11:03:06.331Z,8.6
2019-04-03T11:06:37.848Z,9.5
2019-04-03T11:07:44.845Z,9.3
2019-04-03T11:08:54.464Z,9.7
2019-04-03T11:10:04.480Z,9.3
2019-04-03T11:11:13.973Z,8.4
2019-04-03T11:12:23.597Z,9.1
2019-04-03T11:13:34.818Z,8.4
2019-04-03T11:14:43.842Z,8
2019-04-03T11:15:52.930Z,8.8
2019-04-03T11:17:02.845Z,9.3
2019-04-03T11:18:12.188Z,8.4
2019-04-03T11:19:22.324Z,7.1
2019-04-03T11:20:31.799Z,8
2019-04-03T11:21:44.812Z,7.7
2019-04-03T11:23:06.993Z,8.3
2019-04-03T11:24:01.437Z,7.9
2019-04-03T11:25:15.397Z,6.6
2019-04-03T11:26:25.080Z,7
2019-04-03T11:27:44.958Z,6.7
2019-04-03T11:28:40.310Z,8.6
2019-04-03T11:29:49.799Z,8.7
2019-04-03T11:31:01.899Z,8.7
2019-04-03T11:32:10.055Z,8.7
2019-04-03T11:33:19.179Z,8.9
2019-04-03T11:34:28.992Z,6.6
2019-04-03T11:35:38.746Z,7
2019-04-03T11:36:49.919Z,7.3
2019-04-03T11:37:58.062Z,7
2019-04-03T11:39:15.559Z,5.4
2019-04-03T11:40:18.964Z,4.7
2019-04-03T11:41:27.565Z,6
2019-04-03T11:42:37.342Z,6.3
2019-04-03T11:43:47.036Z,6.6
2019-04-03T11:44:56.630Z,6.1
2019-04-03T11:46:06.603Z,7.1
2019-04-03T11:47:16.187Z,7
2019-04-03T11:48:27.729Z,6.9
2019-04-03T11:49:35.768Z,6.3
2019-04-03T11:50:45.678Z,6.7
2019-04-03T11:51:55.384Z,6.7
2019-04-03T11:53:07.816Z,6.2
2019-04-03T11:54:15.020Z,8.2
2019-04-03T11:55:24.692Z,8.2
2019-04-03T11:56:34.804Z,8.4
2019-04-03T11:57:45.718Z,7.8
2019-04-03T11:58:54.332Z,7.9
2019-04-03T12:00:03.837Z,7.9
2019-04-03T12:01:16.738Z,6.6
2019-04-03T12:02:23.317Z,7.7
2019-04-03T12:03:33.180Z,7.6
2019-04-03T12:04:44.676Z,7.7
2019-04-03T12:05:52.556Z,7.4
2019-04-03T12:07:02.341Z,7.7
2019-04-03T12:08:13.092Z,6.9
2019-04-03T12:09:21.855Z,6.2
2019-04-03T12:10:35.053Z,5.6
2019-04-03T12:11:41.326Z,6.4
2019-04-03T12:12:51.401Z,6.9
2019-04-03T12:14:00.800Z,7.5
2019-04-03T12:15:10.926Z,8.4
2019-04-03T12:16:24.464Z,8.2
2019-04-03T12:17:31.090Z,8.5
2019-04-03T12:18:39.731Z,7.9
2019-04-03T12:19:49.441Z,8.3
2019-04-03T12:20:59.162Z,8
2019-04-03T12:22:09.008Z,8.4
2019-04-03T12:23:18.612Z,8.4
2019-04-03T12:24:28.462Z,7.5
2019-04-03T12:25:40.637Z,8.3
2019-04-03T12:26:50.499Z,8.4
2019-04-03T12:27:57.521Z,7.3
2019-04-03T12:29:08.399Z,7.4
2019-04-03T12:30:17.405Z,7.5
2019-04-03T12:31:26.742Z,7.2
2019-04-03T12:32:44.062Z,8.2
2019-04-03T12:33:58.437Z,8.9
2019-04-03T12:34:55.900Z,8.8
2019-04-03T12:36:07.312Z,9
2019-04-03T12:37:19.063Z,9.1
2019-04-03T12:38:24.991Z,9.1
2019-04-03T12:39:34.845Z,9.6
2019-04-03T12:40:44.468Z,9.7
2019-04-03T12:41:54.227Z,9.3
2019-04-03T12:43:03.822Z,9.2
2019-04-03T12:44:13.537Z,8.7
2019-04-03T12:45:27.407Z,8.3
2019-04-03T12:46:34.175Z,8.3
2019-04-03T12:47:44.791Z,9
2019-04-03T12:48:52.363Z,9.5
2019-04-03T12:50:02.178Z,9.8
2019-04-03T12:51:12.228Z,9.9
2019-04-03T12:52:21.459Z,9.3
2019-04-03T12:53:31.311Z,9.4
2019-04-03T12:55:50.615Z,10.2
2019-04-03T12:58:10.027Z,9
2019-04-03T12:59:21.052Z,8.8
2019-04-03T13:00:29.395Z,9
2019-04-03T13:01:39.067Z,8.9
2019-04-03T13:02:52.462Z,8.8
2019-04-03T13:03:58.580Z,9
2019-04-03T13:05:08.096Z,8.8
2019-04-03T13:06:18.058Z,8.2
2019-04-03T13:07:27.501Z,8.3
2019-04-03T13:08:37.409Z,8.7
2019-04-03T13:09:47.001Z,8.3
2019-04-03T13:10:56.511Z,8.6
2019-04-03T13:12:06.450Z,8.5
2019-04-03T13:13:16.168Z,8.5
2019-04-03T13:14:27.787Z,8.4
2019-04-03T13:15:38.055Z,8.3
2019-04-03T13:16:47.589Z,8.8
2019-04-03T13:17:54.648Z,8.5
2019-04-03T13:19:05.064Z,8.5
2019-04-03T13:20:14.494Z,8.9
2019-04-03T13:21:24.358Z,8.6
2019-04-03T13:22:33.436Z,7.4
2019-04-03T13:23:46.711Z,7.6
2019-04-03T13:24:53.302Z,8
2019-04-03T13:26:02.531Z,8.1
2019-04-03T13:27:12.392Z,8.1
2019-04-03T13:28:22.035Z,8.3
2019-04-03T13:29:31.781Z,7.8
2019-04-03T13:30:44.345Z,8.1
2019-04-03T13:31:51.085Z,7.7
2019-04-03T13:33:07.065Z,8
2019-04-03T13:34:11.942Z,8.6
2019-04-03T13:35:20.115Z,8.9
2019-04-03T13:36:29.944Z,8.8
2019-04-03T13:37:39.791Z,8.8
2019-04-03T13:38:51.807Z,9
2019-04-03T13:40:01.201Z,9
2019-04-03T13:41:11.702Z,8.9
2019-04-03T13:42:18.334Z,9.3
2019-04-03T13:43:29.378Z,9.5
2019-04-03T13:44:38.938Z,9.7
2019-04-03T13:45:48.414Z,9.9
2019-04-03T13:46:58.426Z,9.4
2019-04-03T13:48:07.910Z,9.4
2019-04-03T13:49:19.310Z,9.6
2019-04-03T13:50:27.129Z,9.8
2019-04-03T13:51:37.441Z,10.4
2019-04-03T13:52:50.484Z,10.8
2019-04-03T13:53:57.552Z,11
2019-04-03T13:55:06.938Z,10.9
2019-04-03T13:56:16.582Z,10.8
2019-04-03T13:57:26.339Z,11
2019-04-03T13:58:36.187Z,10.8
2019-04-03T13:59:46.150Z,10.6
2019-04-03T14:01:02.302Z,10.2
2019-04-03T14:02:06.502Z,10
2019-04-03T14:03:19.283Z,10.1
2019-04-03T14:04:25.776Z,9.9
2019-04-03T14:05:35.321Z,10.3
2019-04-03T14:06:48.514Z,11.4
2019-04-03T14:07:55.192Z,11.4
2019-04-03T14:09:04.501Z,11.6
2019-04-03T14:10:14.360Z,11.9
2019-04-03T14:11:24.384Z,12.2
2019-04-03T14:12:38.616Z,12.3
2019-04-03T14:13:44.833Z,11.8
2019-04-03T14:14:53.625Z,11
2019-04-03T14:16:02.977Z,11.3
2019-04-03T14:17:14.413Z,11.5
2019-04-03T14:18:22.665Z,10.9
2019-04-03T14:19:45.998Z,10
2019-04-03T14:20:42.445Z,9.3
2019-04-03T14:21:51.911Z,10.7
2019-04-03T14:23:04.678Z,9.9
2019-04-03T14:24:11.230Z,9.5
2019-04-03T14:25:24.195Z,9.7
2019-04-03T14:26:30.848Z,10.7
2019-04-03T14:27:40.667Z,11.6
2019-04-03T14:28:50.389Z,11.9
2019-04-03T14:30:00.104Z,11.6
2019-04-03T14:31:09.962Z,11.7
2019-04-03T14:32:22.067Z,11.6
2019-04-03T14:33:45.567Z,10.9
2019-04-03T14:34:40.793Z,11.2
2019-04-03T14:35:54.418Z,11.2
2019-04-03T14:36:59.680Z,10.7
2019-04-03T14:38:12.405Z,10.9
2019-04-03T14:39:18.730Z,11
2019-04-03T14:40:28.586Z,9.9
2019-04-03T14:41:38.584Z,10.5
2019-04-03T14:42:48.664Z,11.4
2019-04-03T14:43:59.605Z,11.1
2019-04-03T14:45:08.198Z,11.7
2019-04-03T14:46:19.206Z,11.2
2019-04-03T14:47:28.499Z,11.4
2019-04-03T14:48:37.686Z,11.2
2019-04-03T14:49:47.577Z,11.5
2019-04-03T14:50:57.723Z,11.6
2019-04-03T14:52:07.535Z,12
2019-04-03T14:53:20.288Z,11.7
2019-04-03T14:55:49.651Z,11.6
2019-04-03T14:56:47.004Z,11.6
2019-04-03T14:57:56.540Z,11.7
2019-04-03T14:59:06.868Z,11.1
2019-04-03T15:00:30.189Z,10.9
2019-04-03T15:01:26.119Z,10.3
2019-04-03T15:02:35.756Z,10.8
2019-04-03T15:03:45.730Z,10.6
2019-04-03T15:04:55.482Z,10.2
2019-04-03T15:06:05.210Z,11.2
2019-04-03T15:07:18.279Z,11.5
2019-04-03T15:08:24.743Z,11.6
2019-04-03T15:09:34.511Z,11.7
2019-04-03T15:10:44.336Z,11.7
2019-04-03T15:11:54.044Z,11.9
2019-04-03T15:13:03.897Z,11.8
2019-04-03T15:14:13.631Z,11.4
2019-04-03T15:15:27.480Z,11
2019-04-03T15:16:33.372Z,11.1
2019-04-03T15:17:43.046Z,11.1
2019-04-03T15:18:52.845Z,10.8
2019-04-03T15:20:02.619Z,11.6
2019-04-03T15:21:12.416Z,11.7
2019-04-03T15:22:22.490Z,11.2
2019-04-03T15:23:32.128Z,11.3
2019-04-03T15:24:44.492Z,11.1
2019-04-03T15:25:53.403Z,11.8
2019-04-03T15:27:00.982Z,11.8
2019-04-03T15:28:10.790Z,11.8
2019-04-03T15:30:30.311Z,11.9
2019-04-03T15:31:40.285Z,11.8
2019-04-03T15:32:52.219Z,11.8
2019-04-03T15:33:59.548Z,11.8
2019-04-03T15:35:09.280Z,11.8
2019-04-03T15:36:19.433Z,12
2019-04-03T15:37:28.987Z,12.1
2019-04-03T15:38:38.358Z,12.1
2019-04-03T15:39:57.866Z,11.8
2019-04-03T15:40:59.445Z,12
2019-04-03T15:43:17.450Z,12
2019-04-03T15:45:36.926Z,11.7
2019-04-03T15:46:46.527Z,11.7
2019-04-03T15:47:58.447Z,11.9
2019-04-03T15:49:06.337Z,11.9
2019-04-03T15:50:16.349Z,11.8
2019-04-03T15:51:25.557Z,12
2019-04-03T15:52:35.364Z,11.6
2019-04-03T15:53:45.148Z,11.6
2019-04-03T15:54:55.246Z,11.2
2019-04-03T15:56:04.765Z,11.3
2019-04-03T15:57:14.436Z,11.7